sensor_id;sensor_type;location;lat;lon;timestamp;P1;durP1;ratioP1;P2;durP2;ratioP2
8183;SDS011;4133;48.752;9.088;2023-12-20T00:01:54;0.93;;;0.87;;
8183;SDS011;4133;48.752;9.088;2023-12-20T00:04:20;0.70;;;0.70;;
8183;SDS011;4133;48.752;9.088;2023-12-20T00:06:46;1.13;;;0.80;;
8183;SDS011;4133;48.752;9.088;2023-12-20T00:09:12;0.80;;;0.80;;
8183;SDS011;4133;48.752;9.088;2023-12-20T00:11:38;0.80;;;0.80;;
8183;SDS011;4133;48.752;9.088;2023-12-20T00:14:04;0.70;;;0.70;;
8183;SDS011;4133;48.752;9.088;2023-12-20T00:16:30;0.90;;;0.90;;
8183;SDS011;4133;48.752;9.088;2023-12-20T00:18:56;0.57;;;0.57;;
8183;SDS011;4133;48.752;9.088;2023-12-20T00:21:22;0.80;;;0.80;;
8183;SDS011;4133;48.752;9.088;2023-12-20T00:23:48;0.70;;;0.70;;
8183;SDS011;4133;48.752;9.088;2023-12-20T00:26:14;0.77;;;0.77;;
8183;SDS011;4133;48.752;9.088;2023-12-20T00:28:40;0.60;;;0.60;;
8183;SDS011;4133;48.752;9.088;2023-12-20T00:31:07;0.70;;;0.70;;
8183;SDS011;4133;48.752;9.088;2023-12-20T00:33:33;0.70;;;0.70;;
8183;SDS011;4133;48.752;9.088;2023-12-20T00:35:59;0.73;;;0.60;;
8183;SDS011;4133;48.752;9.088;2023-12-20T00:38:25;0.67;;;0.67;;
8183;SDS011;4133;48.752;9.088;2023-12-20T00:40:51;0.63;;;0.63;;
8183;SDS011;4133;48.752;9.088;2023-12-20T00:43:17;0.50;;;0.50;;
8183;SDS011;4133;48.752;9.088;2023-12-20T00:45:43;0.60;;;0.60;;
8183;SDS011;4133;48.752;9.088;2023-12-20T00:48:09;0.80;;;0.80;;
8183;SDS011;4133;48.752;9.088;2023-12-20T00:50:35;0.50;;;0.50;;
8183;SDS011;4133;48.752;9.088;2023-12-20T00:53:01;0.63;;;0.63;;
8183;SDS011;4133;48.752;9.088;2023-12-20T00:55:27;0.60;;;0.60;;
8183;SDS011;4133;48.752;9.088;2023-12-20T00:57:53;0.60;;;0.60;;
8183;SDS011;4133;48.752;9.088;2023-12-20T01:00:19;0.80;;;0.80;;
8183;SDS011;4133;48.752;9.088;2023-12-20T01:02:45;0.60;;;0.60;;
8183;SDS011;4133;48.752;9.088;2023-12-20T01:05:14;0.47;;;0.47;;
8183;SDS011;4133;48.752;9.088;2023-12-20T01:07:40;0.73;;;0.73;;
8183;SDS011;4133;48.752;9.088;2023-12-20T01:10:06;0.50;;;0.50;;
8183;SDS011;4133;48.752;9.088;2023-12-20T01:12:32;0.47;;;0.47;;
8183;SDS011;4133;48.752;9.088;2023-12-20T01:14:58;0.50;;;0.50;;
8183;SDS011;4133;48.752;9.088;2023-12-20T01:17:24;0.60;;;0.60;;
8183;SDS011;4133;48.752;9.088;2023-12-20T01:19:50;0.50;;;0.50;;
8183;SDS011;4133;48.752;9.088;2023-12-20T01:22:16;0.60;;;0.60;;
8183;SDS011;4133;48.752;9.088;2023-12-20T01:24:42;0.73;;;0.73;;
8183;SDS011;4133;48.752;9.088;2023-12-20T01:27:08;0.60;;;0.60;;
8183;SDS011;4133;48.752;9.088;2023-12-20T01:29:34;0.70;;;0.70;;
8183;SDS011;4133;48.752;9.088;2023-12-20T01:32:00;0.50;;;0.50;;
8183;SDS011;4133;48.752;9.088;2023-12-20T01:34:26;0.67;;;0.67;;
8183;SDS011;4133;48.752;9.088;2023-12-20T01:36:52;0.93;;;0.80;;
8183;SDS011;4133;48.752;9.088;2023-12-20T01:39:17;0.60;;;0.60;;
8183;SDS011;4133;48.752;9.088;2023-12-20T01:41:43;0.50;;;0.50;;
8183;SDS011;4133;48.752;9.088;2023-12-20T01:44:10;0.60;;;0.60;;
8183;SDS011;4133;48.752;9.088;2023-12-20T01:46:36;0.50;;;0.50;;
8183;SDS011;4133;48.752;9.088;2023-12-20T01:49:02;0.70;;;0.70;;
8183;SDS011;4133;48.752;9.088;2023-12-20T01:51:28;1.90;;;0.80;;
8183;SDS011;4133;48.752;9.088;2023-12-20T01:53:55;1.63;;;0.80;;
8183;SDS011;4133;48.752;9.088;2023-12-20T01:56:22;0.70;;;0.70;;
8183;SDS011;4133;48.752;9.088;2023-12-20T01:58:49;0.70;;;0.70;;
8183;SDS011;4133;48.752;9.088;2023-12-20T02:01:15;0.50;;;0.50;;
8183;SDS011;4133;48.752;9.088;2023-12-20T02:03:41;0.90;;;0.70;;
8183;SDS011;4133;48.752;9.088;2023-12-20T02:06:07;0.60;;;0.60;;
8183;SDS011;4133;48.752;9.088;2023-12-20T02:08:34;0.60;;;0.60;;
8183;SDS011;4133;48.752;9.088;2023-12-20T02:11:00;2.00;;;0.77;;
8183;SDS011;4133;48.752;9.088;2023-12-20T02:13:26;0.60;;;0.60;;
8183;SDS011;4133;48.752;9.088;2023-12-20T02:15:52;0.73;;;0.73;;
8183;SDS011;4133;48.752;9.088;2023-12-20T02:18:18;0.53;;;0.53;;
8183;SDS011;4133;48.752;9.088;2023-12-20T02:20:44;0.70;;;0.70;;
8183;SDS011;4133;48.752;9.088;2023-12-20T02:23:10;2.00;;;0.80;;
8183;SDS011;4133;48.752;9.088;2023-12-20T02:25:36;0.70;;;0.70;;
8183;SDS011;4133;48.752;9.088;2023-12-20T02:28:02;1.10;;;0.77;;
8183;SDS011;4133;48.752;9.088;2023-12-20T02:30:28;0.70;;;0.70;;
8183;SDS011;4133;48.752;9.088;2023-12-20T02:32:55;0.60;;;0.60;;
8183;SDS011;4133;48.752;9.088;2023-12-20T02:35:21;0.50;;;0.50;;
8183;SDS011;4133;48.752;9.088;2023-12-20T02:37:47;0.50;;;0.50;;
8183;SDS011;4133;48.752;9.088;2023-12-20T02:40:13;0.50;;;0.50;;
8183;SDS011;4133;48.752;9.088;2023-12-20T02:42:39;0.50;;;0.50;;
8183;SDS011;4133;48.752;9.088;2023-12-20T02:45:05;0.60;;;0.60;;
8183;SDS011;4133;48.752;9.088;2023-12-20T02:47:31;0.40;;;0.40;;
8183;SDS011;4133;48.752;9.088;2023-12-20T02:49:57;0.50;;;0.50;;
8183;SDS011;4133;48.752;9.088;2023-12-20T02:52:23;0.30;;;0.30;;
8183;SDS011;4133;48.752;9.088;2023-12-20T02:54:50;0.80;;;0.40;;
8183;SDS011;4133;48.752;9.088;2023-12-20T02:57:16;0.43;;;0.43;;
8183;SDS011;4133;48.752;9.088;2023-12-20T02:59:42;0.40;;;0.40;;
8183;SDS011;4133;48.752;9.088;2023-12-20T03:02:08;0.60;;;0.60;;
8183;SDS011;4133;48.752;9.088;2023-12-20T03:04:34;0.67;;;0.67;;
8183;SDS011;4133;48.752;9.088;2023-12-20T03:07:00;0.73;;;0.60;;
8183;SDS011;4133;48.752;9.088;2023-12-20T03:09:26;0.30;;;0.30;;
8183;SDS011;4133;48.752;9.088;2023-12-20T03:11:52;0.30;;;0.30;;
8183;SDS011;4133;48.752;9.088;2023-12-20T03:14:18;0.30;;;0.30;;
8183;SDS011;4133;48.752;9.088;2023-12-20T03:16:50;0.20;;;0.20;;
8183;SDS011;4133;48.752;9.088;2023-12-20T03:19:17;0.40;;;0.40;;
8183;SDS011;4133;48.752;9.088;2023-12-20T03:21:43;0.20;;;0.20;;
8183;SDS011;4133;48.752;9.088;2023-12-20T03:24:09;0.40;;;0.40;;
8183;SDS011;4133;48.752;9.088;2023-12-20T03:26:35;0.27;;;0.27;;
8183;SDS011;4133;48.752;9.088;2023-12-20T03:29:01;0.40;;;0.40;;
8183;SDS011;4133;48.752;9.088;2023-12-20T03:31:27;0.30;;;0.30;;
8183;SDS011;4133;48.752;9.088;2023-12-20T03:33:53;0.20;;;0.20;;
8183;SDS011;4133;48.752;9.088;2023-12-20T03:36:19;0.30;;;0.30;;
8183;SDS011;4133;48.752;9.088;2023-12-20T03:38:45;0.20;;;0.20;;
8183;SDS011;4133;48.752;9.088;2023-12-20T03:41:11;0.20;;;0.20;;
8183;SDS011;4133;48.752;9.088;2023-12-20T03:43:37;0.30;;;0.30;;
8183;SDS011;4133;48.752;9.088;2023-12-20T03:46:03;0.30;;;0.30;;
8183;SDS011;4133;48.752;9.088;2023-12-20T03:48:30;0.20;;;0.20;;
8183;SDS011;4133;48.752;9.088;2023-12-20T03:50:56;0.30;;;0.30;;
8183;SDS011;4133;48.752;9.088;2023-12-20T03:53:22;0.30;;;0.30;;
8183;SDS011;4133;48.752;9.088;2023-12-20T03:55:48;0.20;;;0.20;;
8183;SDS011;4133;48.752;9.088;2023-12-20T03:58:14;0.20;;;0.20;;
8183;SDS011;4133;48.752;9.088;2023-12-20T04:00:40;0.30;;;0.30;;
8183;SDS011;4133;48.752;9.088;2023-12-20T04:03:06;0.30;;;0.30;;
8183;SDS011;4133;48.752;9.088;2023-12-20T04:05:32;0.47;;;0.47;;
8183;SDS011;4133;48.752;9.088;2023-12-20T04:07:59;0.40;;;0.40;;
8183;SDS011;4133;48.752;9.088;2023-12-20T04:10:25;0.20;;;0.20;;
8183;SDS011;4133;48.752;9.088;2023-12-20T04:12:51;0.27;;;0.27;;
8183;SDS011;4133;48.752;9.088;2023-12-20T04:15:17;0.23;;;0.23;;
8183;SDS011;4133;48.752;9.088;2023-12-20T04:17:43;0.20;;;0.20;;
8183;SDS011;4133;48.752;9.088;2023-12-20T04:20:09;0.50;;;0.37;;
8183;SDS011;4133;48.752;9.088;2023-12-20T04:22:35;0.40;;;0.30;;
8183;SDS011;4133;48.752;9.088;2023-12-20T04:25:01;0.57;;;0.57;;
8183;SDS011;4133;48.752;9.088;2023-12-20T04:27:27;0.20;;;0.20;;
8183;SDS011;4133;48.752;9.088;2023-12-20T04:29:53;0.20;;;0.20;;
8183;SDS011;4133;48.752;9.088;2023-12-20T04:32:19;0.23;;;0.23;;
8183;SDS011;4133;48.752;9.088;2023-12-20T04:34:45;0.27;;;0.27;;
8183;SDS011;4133;48.752;9.088;2023-12-20T04:37:11;0.20;;;0.20;;
8183;SDS011;4133;48.752;9.088;2023-12-20T04:39:37;0.40;;;0.40;;
8183;SDS011;4133;48.752;9.088;2023-12-20T04:42:03;0.20;;;0.20;;
8183;SDS011;4133;48.752;9.088;2023-12-20T04:44:29;0.30;;;0.30;;
8183;SDS011;4133;48.752;9.088;2023-12-20T04:46:55;0.30;;;0.30;;
8183;SDS011;4133;48.752;9.088;2023-12-20T04:49:21;0.30;;;0.30;;
8183;SDS011;4133;48.752;9.088;2023-12-20T04:51:47;0.47;;;0.33;;
8183;SDS011;4133;48.752;9.088;2023-12-20T04:54:14;0.30;;;0.30;;
8183;SDS011;4133;48.752;9.088;2023-12-20T04:56:40;0.40;;;0.40;;
8183;SDS011;4133;48.752;9.088;2023-12-20T04:59:06;0.57;;;0.40;;
8183;SDS011;4133;48.752;9.088;2023-12-20T05:01:32;0.30;;;0.30;;
8183;SDS011;4133;48.752;9.088;2023-12-20T05:03:58;0.40;;;0.40;;
8183;SDS011;4133;48.752;9.088;2023-12-20T05:06:23;0.20;;;0.20;;
8183;SDS011;4133;48.752;9.088;2023-12-20T05:08:49;0.30;;;0.30;;
8183;SDS011;4133;48.752;9.088;2023-12-20T05:11:15;0.30;;;0.30;;
8183;SDS011;4133;48.752;9.088;2023-12-20T05:13:41;0.30;;;0.30;;
8183;SDS011;4133;48.752;9.088;2023-12-20T05:16:07;0.50;;;0.40;;
8183;SDS011;4133;48.752;9.088;2023-12-20T05:18:34;1.30;;;0.40;;
8183;SDS011;4133;48.752;9.088;2023-12-20T05:21:00;0.40;;;0.40;;
8183;SDS011;4133;48.752;9.088;2023-12-20T05:23:26;0.40;;;0.40;;
8183;SDS011;4133;48.752;9.088;2023-12-20T05:25:52;0.40;;;0.40;;
8183;SDS011;4133;48.752;9.088;2023-12-20T05:28:18;0.20;;;0.20;;
8183;SDS011;4133;48.752;9.088;2023-12-20T05:30:44;0.40;;;0.40;;
8183;SDS011;4133;48.752;9.088;2023-12-20T05:33:10;0.23;;;0.23;;
8183;SDS011;4133;48.752;9.088;2023-12-20T05:35:36;0.40;;;0.40;;
8183;SDS011;4133;48.752;9.088;2023-12-20T05:38:02;0.20;;;0.20;;
8183;SDS011;4133;48.752;9.088;2023-12-20T05:40:28;0.10;;;0.10;;
8183;SDS011;4133;48.752;9.088;2023-12-20T05:42:54;0.43;;;0.43;;
8183;SDS011;4133;48.752;9.088;2023-12-20T05:45:20;0.23;;;0.23;;
8183;SDS011;4133;48.752;9.088;2023-12-20T05:47:46;0.30;;;0.30;;
8183;SDS011;4133;48.752;9.088;2023-12-20T05:50:12;0.20;;;0.20;;
8183;SDS011;4133;48.752;9.088;2023-12-20T05:52:38;0.30;;;0.30;;
8183;SDS011;4133;48.752;9.088;2023-12-20T05:55:04;0.30;;;0.30;;
8183;SDS011;4133;48.752;9.088;2023-12-20T05:57:32;0.47;;;0.47;;
8183;SDS011;4133;48.752;9.088;2023-12-20T05:59:58;0.30;;;0.30;;
8183;SDS011;4133;48.752;9.088;2023-12-20T06:02:24;0.40;;;0.40;;
8183;SDS011;4133;48.752;9.088;2023-12-20T06:04:50;0.30;;;0.30;;
8183;SDS011;4133;48.752;9.088;2023-12-20T06:07:16;0.30;;;0.30;;
8183;SDS011;4133;48.752;9.088;2023-12-20T06:09:42;0.30;;;0.30;;
8183;SDS011;4133;48.752;9.088;2023-12-20T06:12:08;0.87;;;0.37;;
8183;SDS011;4133;48.752;9.088;2023-12-20T06:14:35;0.20;;;0.20;;
8183;SDS011;4133;48.752;9.088;2023-12-20T06:17:01;0.80;;;0.40;;
8183;SDS011;4133;48.752;9.088;2023-12-20T06:19:27;0.33;;;0.33;;
8183;SDS011;4133;48.752;9.088;2023-12-20T06:21:53;0.23;;;0.23;;
8183;SDS011;4133;48.752;9.088;2023-12-20T06:24:19;0.40;;;0.40;;
8183;SDS011;4133;48.752;9.088;2023-12-20T06:26:46;1.20;;;0.60;;
8183;SDS011;4133;48.752;9.088;2023-12-20T06:29:12;0.40;;;0.40;;
8183;SDS011;4133;48.752;9.088;2023-12-20T06:31:38;0.30;;;0.30;;
8183;SDS011;4133;48.752;9.088;2023-12-20T06:34:04;0.50;;;0.50;;
8183;SDS011;4133;48.752;9.088;2023-12-20T06:36:30;0.40;;;0.40;;
8183;SDS011;4133;48.752;9.088;2023-12-20T06:38:56;0.37;;;0.37;;
8183;SDS011;4133;48.752;9.088;2023-12-20T06:41:23;0.50;;;0.50;;
8183;SDS011;4133;48.752;9.088;2023-12-20T06:43:49;1.63;;;0.37;;
8183;SDS011;4133;48.752;9.088;2023-12-20T06:46:16;0.20;;;0.20;;
8183;SDS011;4133;48.752;9.088;2023-12-20T06:48:42;0.20;;;0.20;;
8183;SDS011;4133;48.752;9.088;2023-12-20T06:51:11;0.30;;;0.30;;
8183;SDS011;4133;48.752;9.088;2023-12-20T06:53:38;0.40;;;0.40;;
8183;SDS011;4133;48.752;9.088;2023-12-20T06:56:04;0.40;;;0.40;;
8183;SDS011;4133;48.752;9.088;2023-12-20T06:58:30;0.50;;;0.50;;
8183;SDS011;4133;48.752;9.088;2023-12-20T07:00:56;0.40;;;0.40;;
8183;SDS011;4133;48.752;9.088;2023-12-20T07:03:22;0.37;;;0.37;;
8183;SDS011;4133;48.752;9.088;2023-12-20T07:05:48;0.40;;;0.40;;
8183;SDS011;4133;48.752;9.088;2023-12-20T07:08:14;0.40;;;0.40;;
8183;SDS011;4133;48.752;9.088;2023-12-20T07:10:41;0.37;;;0.37;;
8183;SDS011;4133;48.752;9.088;2023-12-20T07:13:07;0.30;;;0.30;;
8183;SDS011;4133;48.752;9.088;2023-12-20T07:15:33;0.50;;;0.50;;
8183;SDS011;4133;48.752;9.088;2023-12-20T07:17:59;0.50;;;0.50;;
8183;SDS011;4133;48.752;9.088;2023-12-20T07:20:25;0.40;;;0.40;;
8183;SDS011;4133;48.752;9.088;2023-12-20T07:22:51;0.30;;;0.30;;
8183;SDS011;4133;48.752;9.088;2023-12-20T07:25:17;0.47;;;0.47;;
8183;SDS011;4133;48.752;9.088;2023-12-20T07:27:45;0.57;;;0.57;;
8183;SDS011;4133;48.752;9.088;2023-12-20T07:30:11;0.43;;;0.43;;
8183;SDS011;4133;48.752;9.088;2023-12-20T07:32:37;0.50;;;0.50;;
8183;SDS011;4133;48.752;9.088;2023-12-20T07:35:03;1.17;;;0.70;;
8183;SDS011;4133;48.752;9.088;2023-12-20T07:37:30;0.63;;;0.63;;
8183;SDS011;4133;48.752;9.088;2023-12-20T07:39:56;1.13;;;1.03;;
8183;SDS011;4133;48.752;9.088;2023-12-20T07:42:22;0.90;;;0.90;;
8183;SDS011;4133;48.752;9.088;2023-12-20T07:44:51;0.90;;;0.90;;
8183;SDS011;4133;48.752;9.088;2023-12-20T07:47:17;1.00;;;1.00;;
8183;SDS011;4133;48.752;9.088;2023-12-20T07:49:46;1.03;;;1.03;;
8183;SDS011;4133;48.752;9.088;2023-12-20T07:52:12;0.90;;;0.90;;
8183;SDS011;4133;48.752;9.088;2023-12-20T07:54:38;1.27;;;1.17;;
8183;SDS011;4133;48.752;9.088;2023-12-20T07:57:04;1.30;;;1.20;;
8183;SDS011;4133;48.752;9.088;2023-12-20T07:59:30;1.23;;;1.13;;
8183;SDS011;4133;48.752;9.088;2023-12-20T08:01:56;1.27;;;1.23;;
8183;SDS011;4133;48.752;9.088;2023-12-20T08:04:22;1.20;;;1.20;;
8183;SDS011;4133;48.752;9.088;2023-12-20T08:06:48;1.10;;;1.10;;
8183;SDS011;4133;48.752;9.088;2023-12-20T08:09:14;1.10;;;1.10;;
8183;SDS011;4133;48.752;9.088;2023-12-20T08:11:44;1.67;;;1.20;;
8183;SDS011;4133;48.752;9.088;2023-12-20T08:14:10;1.27;;;1.17;;
8183;SDS011;4133;48.752;9.088;2023-12-20T08:16:36;1.23;;;1.13;;
8183;SDS011;4133;48.752;9.088;2023-12-20T08:19:02;1.17;;;1.07;;
8183;SDS011;4133;48.752;9.088;2023-12-20T08:21:28;1.43;;;1.10;;
8183;SDS011;4133;48.752;9.088;2023-12-20T08:23:54;1.07;;;1.07;;
8183;SDS011;4133;48.752;9.088;2023-12-20T08:26:21;1.40;;;1.30;;
8183;SDS011;4133;48.752;9.088;2023-12-20T08:28:48;1.30;;;1.00;;
8183;SDS011;4133;48.752;9.088;2023-12-20T08:31:15;1.50;;;1.40;;
8183;SDS011;4133;48.752;9.088;2023-12-20T08:33:42;1.27;;;1.20;;
8183;SDS011;4133;48.752;9.088;2023-12-20T08:36:09;1.20;;;1.20;;
8183;SDS011;4133;48.752;9.088;2023-12-20T08:38:35;1.00;;;1.00;;
8183;SDS011;4133;48.752;9.088;2023-12-20T08:41:01;1.33;;;1.23;;
8183;SDS011;4133;48.752;9.088;2023-12-20T08:43:30;1.30;;;1.20;;
8183;SDS011;4133;48.752;9.088;2023-12-20T08:45:56;1.00;;;1.00;;
8183;SDS011;4133;48.752;9.088;2023-12-20T08:48:22;1.20;;;1.20;;
8183;SDS011;4133;48.752;9.088;2023-12-20T08:50:48;1.97;;;1.30;;
8183;SDS011;4133;48.752;9.088;2023-12-20T08:53:15;1.43;;;1.33;;
8183;SDS011;4133;48.752;9.088;2023-12-20T08:55:43;0.90;;;0.90;;
8183;SDS011;4133;48.752;9.088;2023-12-20T08:58:09;1.20;;;1.10;;
8183;SDS011;4133;48.752;9.088;2023-12-20T09:00:35;1.27;;;1.27;;
8183;SDS011;4133;48.752;9.088;2023-12-20T09:03:01;1.33;;;1.23;;
8183;SDS011;4133;48.752;9.088;2023-12-20T09:05:28;1.10;;;1.10;;
8183;SDS011;4133;48.752;9.088;2023-12-20T09:07:54;2.00;;;1.30;;
8183;SDS011;4133;48.752;9.088;2023-12-20T09:10:20;1.73;;;1.63;;
8183;SDS011;4133;48.752;9.088;2023-12-20T09:12:47;1.57;;;1.33;;
8183;SDS011;4133;48.752;9.088;2023-12-20T09:15:13;3.70;;;1.50;;
8183;SDS011;4133;48.752;9.088;2023-12-20T09:17:40;0.90;;;0.90;;
8183;SDS011;4133;48.752;9.088;2023-12-20T09:20:06;2.30;;;1.13;;
8183;SDS011;4133;48.752;9.088;2023-12-20T09:22:33;1.10;;;1.00;;
8183;SDS011;4133;48.752;9.088;2023-12-20T09:24:59;1.93;;;1.10;;
8183;SDS011;4133;48.752;9.088;2023-12-20T09:27:26;1.03;;;1.00;;
8183;SDS011;4133;48.752;9.088;2023-12-20T09:29:52;1.00;;;0.90;;
8183;SDS011;4133;48.752;9.088;2023-12-20T09:32:19;1.33;;;1.23;;
8183;SDS011;4133;48.752;9.088;2023-12-20T09:34:48;1.17;;;1.00;;
8183;SDS011;4133;48.752;9.088;2023-12-20T09:37:14;2.53;;;0.80;;
8183;SDS011;4133;48.752;9.088;2023-12-20T09:39:40;1.00;;;0.70;;
8183;SDS011;4133;48.752;9.088;2023-12-20T09:42:06;2.00;;;0.80;;
8183;SDS011;4133;48.752;9.088;2023-12-20T09:44:33;1.20;;;0.87;;
8183;SDS011;4133;48.752;9.088;2023-12-20T09:47:02;3.13;;;0.80;;
8183;SDS011;4133;48.752;9.088;2023-12-20T09:49:28;0.80;;;0.80;;
8183;SDS011;4133;48.752;9.088;2023-12-20T09:51:54;0.83;;;0.73;;
8183;SDS011;4133;48.752;9.088;2023-12-20T09:54:21;0.60;;;0.60;;
8183;SDS011;4133;48.752;9.088;2023-12-20T09:56:47;1.20;;;0.90;;
8183;SDS011;4133;48.752;9.088;2023-12-20T09:59:13;1.93;;;0.83;;
8183;SDS011;4133;48.752;9.088;2023-12-20T10:01:40;0.60;;;0.60;;
8183;SDS011;4133;48.752;9.088;2023-12-20T10:04:06;0.83;;;0.80;;
8183;SDS011;4133;48.752;9.088;2023-12-20T10:06:35;1.17;;;0.80;;
8183;SDS011;4133;48.752;9.088;2023-12-20T10:09:01;0.70;;;0.70;;
8183;SDS011;4133;48.752;9.088;2023-12-20T10:11:29;1.57;;;1.10;;
8183;SDS011;4133;48.752;9.088;2023-12-20T10:14:01;2.40;;;1.00;;
8183;SDS011;4133;48.752;9.088;2023-12-20T10:16:27;0.60;;;0.60;;
8183;SDS011;4133;48.752;9.088;2023-12-20T10:18:53;0.60;;;0.60;;
8183;SDS011;4133;48.752;9.088;2023-12-20T10:21:20;0.97;;;0.83;;
8183;SDS011;4133;48.752;9.088;2023-12-20T10:23:46;0.70;;;0.70;;
8183;SDS011;4133;48.752;9.088;2023-12-20T10:26:24;1.70;;;0.70;;
8183;SDS011;4133;48.752;9.088;2023-12-20T10:28:50;1.00;;;0.90;;
8183;SDS011;4133;48.752;9.088;2023-12-20T10:31:31;1.70;;;1.17;;
8183;SDS011;4133;48.752;9.088;2023-12-20T10:33:57;2.00;;;1.00;;
8183;SDS011;4133;48.752;9.088;2023-12-20T10:36:25;0.80;;;0.80;;
8183;SDS011;4133;48.752;9.088;2023-12-20T10:38:52;0.70;;;0.70;;
8183;SDS011;4133;48.752;9.088;2023-12-20T10:41:24;0.77;;;0.77;;
8183;SDS011;4133;48.752;9.088;2023-12-20T10:43:51;1.57;;;0.70;;
8183;SDS011;4133;48.752;9.088;2023-12-20T10:46:19;0.87;;;0.87;;
8183;SDS011;4133;48.752;9.088;2023-12-20T10:48:47;0.63;;;0.63;;
8183;SDS011;4133;48.752;9.088;2023-12-20T10:51:35;1.03;;;0.77;;
8183;SDS011;4133;48.752;9.088;2023-12-20T10:54:02;1.50;;;0.97;;
8183;SDS011;4133;48.752;9.088;2023-12-20T10:56:29;0.90;;;0.87;;
8183;SDS011;4133;48.752;9.088;2023-12-20T10:58:58;1.43;;;1.00;;
8183;SDS011;4133;48.752;9.088;2023-12-20T11:01:29;1.37;;;0.77;;
8183;SDS011;4133;48.752;9.088;2023-12-20T11:03:56;1.30;;;0.90;;
8183;SDS011;4133;48.752;9.088;2023-12-20T11:08:52;1.30;;;0.90;;
8183;SDS011;4133;48.752;9.088;2023-12-20T11:11:32;0.70;;;0.67;;
8183;SDS011;4133;48.752;9.088;2023-12-20T11:16:27;0.60;;;0.60;;
8183;SDS011;4133;48.752;9.088;2023-12-20T11:18:53;0.80;;;0.80;;
8183;SDS011;4133;48.752;9.088;2023-12-20T11:21:19;0.90;;;0.90;;
8183;SDS011;4133;48.752;9.088;2023-12-20T11:23:45;0.70;;;0.70;;
8183;SDS011;4133;48.752;9.088;2023-12-20T11:26:11;0.63;;;0.60;;
8183;SDS011;4133;48.752;9.088;2023-12-20T11:28:37;2.10;;;1.03;;
8183;SDS011;4133;48.752;9.088;2023-12-20T11:31:03;0.60;;;0.60;;
8183;SDS011;4133;48.752;9.088;2023-12-20T11:33:38;0.83;;;0.70;;
8183;SDS011;4133;48.752;9.088;2023-12-20T11:36:12;1.00;;;0.80;;
8183;SDS011;4133;48.752;9.088;2023-12-20T11:38:38;1.57;;;1.07;;
8183;SDS011;4133;48.752;9.088;2023-12-20T11:41:05;1.87;;;0.90;;
8183;SDS011;4133;48.752;9.088;2023-12-20T11:43:32;1.57;;;0.93;;
8183;SDS011;4133;48.752;9.088;2023-12-20T11:46:04;0.70;;;0.70;;
8183;SDS011;4133;48.752;9.088;2023-12-20T11:48:31;1.13;;;0.73;;
8183;SDS011;4133;48.752;9.088;2023-12-20T11:50:57;0.80;;;0.80;;
8183;SDS011;4133;48.752;9.088;2023-12-20T11:53:23;2.97;;;0.87;;
8183;SDS011;4133;48.752;9.088;2023-12-20T11:55:49;0.73;;;0.60;;
8183;SDS011;4133;48.752;9.088;2023-12-20T11:58:15;0.90;;;0.77;;
8183;SDS011;4133;48.752;9.088;2023-12-20T12:00:42;1.40;;;0.83;;
8183;SDS011;4133;48.752;9.088;2023-12-20T12:03:08;0.87;;;0.80;;
8183;SDS011;4133;48.752;9.088;2023-12-20T12:05:34;0.87;;;0.80;;
8183;SDS011;4133;48.752;9.088;2023-12-20T12:08:00;1.17;;;0.70;;
8183;SDS011;4133;48.752;9.088;2023-12-20T12:10:27;1.57;;;0.70;;
8183;SDS011;4133;48.752;9.088;2023-12-20T12:12:53;2.40;;;0.60;;
8183;SDS011;4133;48.752;9.088;2023-12-20T12:15:19;0.73;;;0.67;;
8183;SDS011;4133;48.752;9.088;2023-12-20T12:17:52;0.77;;;0.67;;
8183;SDS011;4133;48.752;9.088;2023-12-20T12:20:19;0.80;;;0.80;;
8183;SDS011;4133;48.752;9.088;2023-12-20T12:22:45;1.10;;;0.90;;
8183;SDS011;4133;48.752;9.088;2023-12-20T12:25:15;0.60;;;0.60;;
8183;SDS011;4133;48.752;9.088;2023-12-20T12:27:42;0.70;;;0.70;;
8183;SDS011;4133;48.752;9.088;2023-12-20T12:30:08;0.73;;;0.73;;
8183;SDS011;4133;48.752;9.088;2023-12-20T12:32:34;2.03;;;0.70;;
8183;SDS011;4133;48.752;9.088;2023-12-20T12:35:02;1.60;;;0.83;;
8183;SDS011;4133;48.752;9.088;2023-12-20T12:37:28;1.63;;;0.70;;
8183;SDS011;4133;48.752;9.088;2023-12-20T12:39:54;0.80;;;0.80;;
8183;SDS011;4133;48.752;9.088;2023-12-20T12:42:20;0.60;;;0.60;;
8183;SDS011;4133;48.752;9.088;2023-12-20T12:44:50;1.93;;;1.00;;
8183;SDS011;4133;48.752;9.088;2023-12-20T12:47:17;0.73;;;0.73;;
8183;SDS011;4133;48.752;9.088;2023-12-20T12:49:43;1.20;;;1.10;;
8183;SDS011;4133;48.752;9.088;2023-12-20T12:52:09;1.27;;;0.60;;
8183;SDS011;4133;48.752;9.088;2023-12-20T12:54:35;0.83;;;0.70;;
8183;SDS011;4133;48.752;9.088;2023-12-20T12:57:01;0.77;;;0.60;;
8183;SDS011;4133;48.752;9.088;2023-12-20T12:59:27;1.70;;;0.67;;
8183;SDS011;4133;48.752;9.088;2023-12-20T13:01:53;1.07;;;0.73;;
8183;SDS011;4133;48.752;9.088;2023-12-20T13:04:19;0.77;;;0.67;;
8183;SDS011;4133;48.752;9.088;2023-12-20T13:06:45;0.87;;;0.60;;
8183;SDS011;4133;48.752;9.088;2023-12-20T13:09:12;1.60;;;1.30;;
8183;SDS011;4133;48.752;9.088;2023-12-20T13:11:38;0.60;;;0.60;;
8183;SDS011;4133;48.752;9.088;2023-12-20T13:14:04;1.50;;;0.97;;
8183;SDS011;4133;48.752;9.088;2023-12-20T13:16:30;1.65;;;0.90;;
8183;SDS011;4133;48.752;9.088;2023-12-20T13:18:56;1.50;;;0.70;;
8183;SDS011;4133;48.752;9.088;2023-12-20T13:21:22;1.43;;;0.80;;
8183;SDS011;4133;48.752;9.088;2023-12-20T13:23:48;1.70;;;0.73;;
8183;SDS011;4133;48.752;9.088;2023-12-20T13:26:14;0.90;;;0.90;;
8183;SDS011;4133;48.752;9.088;2023-12-20T13:28:40;2.43;;;0.83;;
8183;SDS011;4133;48.752;9.088;2023-12-20T13:31:09;0.98;;;0.70;;
8183;SDS011;4133;48.752;9.088;2023-12-20T13:33:35;1.83;;;0.70;;
8183;SDS011;4133;48.752;9.088;2023-12-20T13:36:01;1.53;;;0.93;;
8183;SDS011;4133;48.752;9.088;2023-12-20T13:38:28;2.20;;;0.97;;
8183;SDS011;4133;48.752;9.088;2023-12-20T13:40:54;0.60;;;0.60;;
8183;SDS011;4133;48.752;9.088;2023-12-20T13:43:20;1.60;;;0.80;;
8183;SDS011;4133;48.752;9.088;2023-12-20T13:48:23;1.30;;;0.80;;
8183;SDS011;4133;48.752;9.088;2023-12-20T13:50:49;1.80;;;0.70;;
8183;SDS011;4133;48.752;9.088;2023-12-20T13:53:18;0.87;;;0.77;;
8183;SDS011;4133;48.752;9.088;2023-12-20T13:55:44;1.33;;;0.80;;
8183;SDS011;4133;48.752;9.088;2023-12-20T13:58:10;0.60;;;0.60;;
8183;SDS011;4133;48.752;9.088;2023-12-20T14:00:36;1.17;;;0.80;;
8183;SDS011;4133;48.752;9.088;2023-12-20T14:03:06;1.13;;;0.70;;
8183;SDS011;4133;48.752;9.088;2023-12-20T14:05:32;1.33;;;0.77;;
8183;SDS011;4133;48.752;9.088;2023-12-20T14:07:59;1.90;;;0.60;;
8183;SDS011;4133;48.752;9.088;2023-12-20T14:10:25;1.20;;;1.10;;
8183;SDS011;4133;48.752;9.088;2023-12-20T14:12:52;0.93;;;0.90;;
8183;SDS011;4133;48.752;9.088;2023-12-20T14:15:18;1.90;;;1.10;;
8183;SDS011;4133;48.752;9.088;2023-12-20T14:17:44;1.03;;;0.73;;
8183;SDS011;4133;48.752;9.088;2023-12-20T14:20:10;1.30;;;0.87;;
8183;SDS011;4133;48.752;9.088;2023-12-20T14:22:40;0.77;;;0.70;;
8183;SDS011;4133;48.752;9.088;2023-12-20T14:25:10;1.03;;;0.90;;
8183;SDS011;4133;48.752;9.088;2023-12-20T14:27:37;1.70;;;1.07;;
8183;SDS011;4133;48.752;9.088;2023-12-20T14:30:03;0.80;;;0.80;;
8183;SDS011;4133;48.752;9.088;2023-12-20T14:32:30;2.00;;;0.80;;
8183;SDS011;4133;48.752;9.088;2023-12-20T14:34:57;1.97;;;0.80;;
8183;SDS011;4133;48.752;9.088;2023-12-20T14:37:23;6.37;;;0.80;;
8183;SDS011;4133;48.752;9.088;2023-12-20T14:39:49;1.70;;;0.90;;
8183;SDS011;4133;48.752;9.088;2023-12-20T14:42:15;0.70;;;0.60;;
8183;SDS011;4133;48.752;9.088;2023-12-20T14:44:41;0.73;;;0.73;;
8183;SDS011;4133;48.752;9.088;2023-12-20T14:47:07;1.87;;;1.00;;
8183;SDS011;4133;48.752;9.088;2023-12-20T14:49:33;1.00;;;0.90;;
8183;SDS011;4133;48.752;9.088;2023-12-20T14:51:59;2.97;;;1.00;;
8183;SDS011;4133;48.752;9.088;2023-12-20T14:54:25;1.10;;;0.90;;
8183;SDS011;4133;48.752;9.088;2023-12-20T14:56:51;0.80;;;0.80;;
8183;SDS011;4133;48.752;9.088;2023-12-20T14:59:17;4.43;;;1.00;;
8183;SDS011;4133;48.752;9.088;2023-12-20T15:01:43;0.63;;;0.63;;
8183;SDS011;4133;48.752;9.088;2023-12-20T15:04:10;0.73;;;0.70;;
8183;SDS011;4133;48.752;9.088;2023-12-20T15:06:36;0.60;;;0.50;;
8183;SDS011;4133;48.752;9.088;2023-12-20T15:09:02;0.87;;;0.70;;
8183;SDS011;4133;48.752;9.088;2023-12-20T15:11:33;0.60;;;0.60;;
8183;SDS011;4133;48.752;9.088;2023-12-20T15:14:00;1.13;;;0.77;;
8183;SDS011;4133;48.752;9.088;2023-12-20T15:16:27;1.70;;;1.13;;
8183;SDS011;4133;48.752;9.088;2023-12-20T15:18:53;0.87;;;0.60;;